KAGC/AGC METAR and TAF weather

Enter ICAO airport designator
Station Type Date Time Source
KAGC METAR 2020/06/06 12:53 UTC NOAA

KAGC 061253Z 33006G14KT 9SM CLR 23/18 A2995 RMK AO2 SLP139 T02280183


Station Type Date Time Source
KAGC Decoded METAR 2020/06/06 12:53 UTC NOAA

PITTSBURGH ALLEGHENY CTY., PA, United States (KAGC) 40-21N 079-55W 389M
Jun 06, 2020 - 08:53 AM EDT / 2020.06.06 1253 UTC
Wind: from the NNW (330 degrees) at 7 MPH (6 KT) gusting to 16 MPH (14 KT):0
Visibility: 9 mile(s):0
Sky conditions: clear
Temperature: 73.0 F (22.8 C)
Dew Point: 64.9 F (18.3 C)
Relative Humidity: 75%
Pressure (altimeter): 29.95 in. Hg (1014 hPa)
ob: KAGC 061253Z 33006G14KT 9SM CLR 23/18 A2995 RMK AO2 SLP139 T02280183
cycle: 13

Station Type Date Time Source
KAGC TAF 2020/06/06 12:33 UTC NOAA

TAF KAGC 061130Z 0612/0712 26006KT P6SM SCT040
TEMPO 0612/0613 5SM BR
FM061400 30006KT P6SM BKN035
FM061600 31008G16KT P6SM SKC
FM071100 35005KT P6SM SKC

Example: see airport list